createdAt,value
2023-05-21T00:00:23.290Z,2.83
2023-05-21T00:02:51.382Z,2.37
2023-05-21T00:05:18.854Z,2.43
2023-05-21T00:07:47.103Z,2.40
2023-05-21T00:10:14.267Z,1.90
2023-05-21T00:12:41.874Z,3.20
2023-05-21T00:15:09.432Z,2.00
2023-05-21T00:17:36.954Z,2.40
2023-05-21T00:20:08.814Z,2.53
2023-05-21T00:22:36.281Z,2.20
2023-05-21T00:25:03.487Z,2.50
2023-05-21T00:27:30.313Z,2.53
2023-05-21T00:29:56.987Z,2.43
2023-05-21T00:32:23.845Z,2.33
2023-05-21T00:34:50.775Z,2.50
2023-05-21T00:37:17.500Z,2.87
2023-05-21T00:39:44.189Z,2.20
2023-05-21T00:42:10.813Z,3.60
2023-05-21T00:44:37.455Z,3.13
2023-05-21T00:47:06.465Z,2.40
2023-05-21T00:49:33.139Z,3.13
2023-05-21T00:52:01.572Z,2.80
2023-05-21T00:54:28.816Z,2.57
2023-05-21T00:56:56.228Z,2.03
2023-05-21T00:59:24.229Z,2.43
2023-05-21T01:01:56.076Z,2.43
2023-05-21T01:04:23.478Z,2.83
2023-05-21T01:06:50.181Z,2.57
2023-05-21T01:09:17.144Z,2.60
2023-05-21T01:11:50.038Z,2.30
2023-05-21T01:14:18.844Z,2.20
2023-05-21T01:16:48.240Z,2.53
2023-05-21T01:19:20.843Z,2.00
2023-05-21T01:21:52.754Z,2.27
2023-05-21T01:24:19.607Z,2.80
2023-05-21T01:26:46.642Z,2.13
2023-05-21T01:29:14.658Z,2.93
2023-05-21T01:31:48.762Z,2.73
2023-05-21T01:34:19.746Z,2.80
2023-05-21T01:36:55.544Z,2.30
2023-05-21T01:39:38.638Z,2.70
2023-05-21T01:42:10.684Z,2.20
2023-05-21T01:44:37.877Z,2.67
2023-05-21T01:47:05.743Z,2.37
2023-05-21T01:49:32.803Z,2.33
2023-05-21T01:51:59.546Z,1.93
2023-05-21T01:54:26.226Z,2.40
2023-05-21T01:56:52.889Z,2.80
2023-05-21T01:59:20.240Z,2.80
2023-05-21T02:01:47.188Z,2.90
2023-05-21T02:04:14.086Z,2.53
2023-05-21T02:06:41.697Z,2.50
2023-05-21T02:09:08.832Z,2.60
2023-05-21T02:11:35.648Z,2.30
2023-05-21T02:14:03.817Z,2.33
2023-05-21T02:16:30.545Z,1.90
2023-05-21T02:18:57.864Z,2.70
2023-05-21T02:21:24.650Z,2.77
2023-05-21T02:23:51.399Z,2.07
2023-05-21T02:26:18.066Z,2.03
2023-05-21T02:28:44.811Z,2.57
2023-05-21T02:31:12.488Z,2.80
2023-05-21T02:33:41.775Z,2.40
2023-05-21T02:36:13.233Z,2.33
2023-05-21T02:38:43.674Z,2.50
2023-05-21T02:41:12.486Z,2.80
2023-05-21T02:43:39.278Z,2.67
2023-05-21T02:46:07.655Z,2.80
2023-05-21T02:48:34.483Z,3.00
2023-05-21T02:51:01.162Z,3.27
2023-05-21T02:53:27.873Z,2.67
2023-05-21T02:55:54.574Z,3.03
2023-05-21T02:58:23.475Z,3.40
2023-05-21T03:00:50.259Z,3.20
2023-05-21T03:03:17.080Z,3.00
2023-05-21T03:05:45.749Z,3.33
2023-05-21T03:08:12.493Z,3.07
2023-05-21T03:10:39.209Z,2.73
2023-05-21T03:13:08.199Z,2.90
2023-05-21T03:15:38.809Z,3.37
2023-05-21T03:18:05.725Z,2.87
2023-05-21T03:20:33.566Z,2.73
2023-05-21T03:23:00.510Z,2.70
2023-05-21T03:25:27.276Z,3.00
2023-05-21T03:27:53.939Z,2.93
2023-05-21T03:30:20.684Z,3.20
2023-05-21T03:32:47.848Z,3.60
2023-05-21T03:35:14.595Z,3.50
2023-05-21T03:37:41.547Z,3.50
2023-05-21T03:40:08.726Z,3.23
2023-05-21T03:42:35.462Z,2.93
2023-05-21T03:45:03.071Z,3.00
2023-05-21T03:47:29.768Z,3.70
2023-05-21T03:49:56.479Z,2.93
2023-05-21T03:52:23.171Z,3.60
2023-05-21T03:54:49.842Z,3.70
2023-05-21T03:57:16.660Z,3.33
2023-05-21T03:59:43.293Z,3.40
2023-05-21T04:02:09.943Z,3.70
2023-05-21T04:04:37.097Z,3.10
2023-05-21T04:07:04.636Z,3.53
2023-05-21T04:09:31.347Z,4.17
2023-05-21T04:11:58.043Z,2.83
2023-05-21T04:14:24.676Z,3.97
2023-05-21T04:16:51.384Z,3.63
2023-05-21T04:19:18.052Z,3.97
2023-05-21T04:21:44.998Z,3.30
2023-05-21T04:24:11.942Z,3.40
2023-05-21T04:26:42.055Z,4.10
2023-05-21T04:29:09.855Z,3.70
2023-05-21T04:31:36.726Z,4.50
2023-05-21T04:34:03.661Z,3.53
2023-05-21T04:36:30.400Z,4.70
2023-05-21T04:38:57.079Z,3.80
2023-05-21T04:41:23.743Z,3.50
2023-05-21T04:43:55.025Z,3.40
2023-05-21T04:46:25.404Z,4.23
2023-05-21T04:48:55.064Z,3.50
2023-05-21T04:51:26.732Z,4.20
2023-05-21T04:53:53.866Z,4.53
2023-05-21T04:56:22.442Z,3.83
2023-05-21T04:58:49.398Z,4.60
2023-05-21T05:01:16.176Z,3.87
2023-05-21T05:03:42.977Z,4.10
2023-05-21T05:06:28.685Z,4.47
2023-05-21T05:08:55.477Z,3.80
2023-05-21T05:11:22.405Z,3.60
2023-05-21T05:13:49.176Z,3.77
2023-05-21T05:16:18.427Z,4.80
2023-05-21T05:18:45.303Z,4.80
2023-05-21T05:21:12.152Z,4.70
2023-05-21T05:23:38.816Z,4.47
2023-05-21T05:26:05.582Z,4.50
2023-05-21T05:28:32.279Z,4.67
2023-05-21T05:30:59.254Z,4.50
2023-05-21T05:33:25.978Z,4.20
2023-05-21T05:35:52.667Z,4.60
2023-05-21T05:38:19.536Z,4.40
2023-05-21T05:40:46.240Z,4.40
2023-05-21T05:43:12.923Z,5.27
2023-05-21T05:45:39.754Z,4.87
2023-05-21T05:48:07.028Z,4.27
2023-05-21T05:50:33.696Z,4.10
2023-05-21T05:53:00.398Z,5.27
2023-05-21T05:55:27.182Z,4.50
2023-05-21T05:57:53.856Z,4.67
2023-05-21T06:00:20.576Z,4.43
2023-05-21T06:02:48.269Z,4.13
2023-05-21T06:05:15.242Z,4.43
2023-05-21T06:07:42.607Z,4.00
2023-05-21T06:10:09.985Z,5.33
2023-05-21T06:12:36.796Z,4.40
2023-05-21T06:15:04.000Z,4.80
2023-05-21T06:17:31.708Z,4.63
2023-05-21T06:19:58.414Z,5.30
2023-05-21T06:22:25.651Z,5.60
2023-05-21T06:24:52.597Z,6.50
2023-05-21T06:27:19.295Z,5.03
2023-05-21T06:29:46.262Z,5.70
2023-05-21T06:32:13.351Z,5.90
2023-05-21T06:34:40.024Z,4.90
2023-05-21T06:37:06.736Z,5.70
2023-05-21T06:39:33.432Z,6.90
2023-05-21T06:42:00.115Z,6.03
2023-05-21T06:44:26.760Z,5.33
2023-05-21T06:46:53.425Z,6.40
2023-05-21T06:49:20.103Z,5.10
2023-05-21T06:51:46.834Z,6.60
2023-05-21T06:54:13.524Z,6.30
2023-05-21T06:56:40.643Z,6.97
2023-05-21T06:59:07.274Z,6.17
2023-05-21T07:01:34.441Z,6.63
2023-05-21T07:04:01.213Z,7.50
2023-05-21T07:06:27.865Z,7.30
2023-05-21T07:08:54.546Z,6.77
2023-05-21T07:11:21.641Z,6.70
2023-05-21T07:13:48.408Z,6.77
2023-05-21T07:16:17.015Z,6.80
2023-05-21T07:18:43.721Z,7.23
2023-05-21T07:21:10.533Z,7.73
2023-05-21T07:23:37.216Z,7.73
2023-05-21T07:26:03.947Z,8.10
2023-05-21T07:28:30.762Z,7.83
2023-05-21T07:30:57.811Z,8.40
2023-05-21T07:33:24.495Z,8.63
2023-05-21T07:35:51.423Z,7.77
2023-05-21T07:38:18.081Z,8.00
2023-05-21T07:40:44.782Z,7.40
2023-05-21T07:43:12.115Z,8.70
2023-05-21T07:45:38.979Z,9.20
2023-05-21T07:48:06.074Z,8.27
2023-05-21T07:50:32.870Z,8.70
2023-05-21T07:52:59.625Z,9.60
2023-05-21T07:55:26.334Z,9.57
2023-05-21T07:57:52.985Z,9.60
2023-05-21T08:00:23.110Z,8.07
2023-05-21T08:02:49.899Z,10.83
2023-05-21T08:05:16.685Z,10.20
2023-05-21T08:07:43.477Z,10.67
2023-05-21T08:10:10.467Z,9.37
2023-05-21T08:12:37.119Z,9.80
2023-05-21T08:15:04.138Z,9.73
2023-05-21T08:17:30.803Z,9.47
2023-05-21T08:19:57.575Z,11.20
2023-05-21T08:22:24.297Z,10.47
2023-05-21T08:24:50.951Z,10.80
2023-05-21T08:27:17.626Z,10.30
2023-05-21T08:29:44.302Z,9.27
2023-05-21T08:32:10.983Z,11.10
2023-05-21T08:34:37.702Z,11.10
2023-05-21T08:37:04.747Z,10.10
2023-05-21T08:39:31.387Z,10.90
2023-05-21T08:42:09.661Z,11.60
2023-05-21T08:44:42.075Z,12.03
2023-05-21T08:47:11.376Z,10.83
2023-05-21T08:49:38.108Z,11.80
2023-05-21T08:52:06.121Z,11.83
2023-05-21T08:54:33.136Z,11.80
2023-05-21T08:57:00.631Z,11.43
2023-05-21T08:59:27.485Z,12.23
2023-05-21T09:01:54.646Z,11.43
2023-05-21T09:04:22.003Z,11.57
2023-05-21T09:06:49.380Z,10.80
2023-05-21T09:09:34.122Z,13.30
2023-05-21T09:12:01.337Z,11.83
2023-05-21T09:14:28.791Z,13.40
2023-05-21T09:16:55.638Z,12.60
2023-05-21T09:19:22.624Z,12.00
2023-05-21T09:21:52.347Z,12.87
2023-05-21T09:24:22.916Z,12.87
2023-05-21T09:26:49.711Z,12.03
2023-05-21T09:29:16.478Z,11.73
2023-05-21T09:31:46.556Z,12.30
2023-05-21T09:34:16.351Z,12.90
2023-05-21T09:36:43.901Z,12.70
2023-05-21T09:39:27.970Z,12.23
2023-05-21T09:41:57.402Z,13.33
2023-05-21T09:44:24.320Z,14.60
2023-05-21T09:46:51.274Z,13.73
2023-05-21T09:49:28.032Z,12.53
2023-05-21T09:51:56.731Z,13.90
2023-05-21T09:54:24.718Z,12.37
2023-05-21T09:56:54.812Z,13.50
2023-05-21T09:59:22.222Z,14.13
2023-05-21T10:01:52.868Z,12.33
2023-05-21T10:04:21.722Z,14.10
2023-05-21T10:06:50.042Z,13.73
2023-05-21T10:09:19.330Z,14.93
2023-05-21T10:11:49.427Z,13.97
2023-05-21T10:14:23.377Z,12.67
2023-05-21T10:16:52.619Z,12.77
2023-05-21T10:19:20.186Z,14.37
2023-05-21T10:21:47.779Z,14.17
2023-05-21T10:24:15.349Z,13.90
2023-05-21T10:26:43.327Z,13.87
2023-05-21T10:29:10.362Z,12.13
2023-05-21T10:31:38.957Z,12.07
2023-05-21T10:34:06.401Z,12.33
2023-05-21T10:36:34.213Z,12.00
2023-05-21T10:39:02.608Z,13.53
2023-05-21T10:41:35.808Z,12.97
2023-05-21T10:44:21.340Z,10.40
2023-05-21T10:46:47.936Z,11.93
2023-05-21T10:49:41.751Z,12.23
2023-05-21T10:52:31.859Z,13.17
2023-05-21T10:55:01.670Z,10.23
2023-05-21T10:58:18.629Z,11.97
2023-05-21T11:00:45.495Z,11.73
2023-05-21T11:03:14.176Z,9.70
2023-05-21T11:05:50.777Z,10.17
2023-05-21T11:08:28.945Z,10.80
2023-05-21T11:11:00.256Z,10.13
2023-05-21T11:13:28.601Z,10.10
2023-05-21T11:15:58.472Z,10.67
2023-05-21T11:18:34.129Z,11.00
2023-05-21T11:21:07.693Z,10.10
2023-05-21T11:24:02.393Z,9.57
2023-05-21T11:26:48.989Z,10.43
2023-05-21T11:29:16.081Z,9.60
2023-05-21T11:31:59.024Z,10.07
2023-05-21T11:34:28.802Z,9.50
2023-05-21T11:37:17.585Z,9.07
2023-05-21T11:39:45.062Z,10.00
2023-05-21T11:42:11.782Z,8.80
2023-05-21T11:44:41.965Z,10.60
2023-05-21T11:47:10.224Z,9.50
2023-05-21T11:49:38.333Z,8.93
2023-05-21T11:52:09.835Z,9.17
2023-05-21T11:54:46.232Z,9.00
2023-05-21T11:57:17.267Z,9.57
2023-05-21T11:59:53.500Z,10.53
2023-05-21T12:02:22.382Z,10.23
2023-05-21T12:04:50.360Z,9.40
2023-05-21T12:07:19.217Z,9.10
2023-05-21T12:09:50.305Z,11.03
2023-05-21T12:12:22.332Z,9.60
2023-05-21T12:14:50.573Z,10.03
2023-05-21T12:17:19.106Z,10.60
2023-05-21T12:19:46.956Z,9.97
2023-05-21T12:22:16.451Z,10.27
2023-05-21T12:24:44.178Z,9.73
2023-05-21T12:27:12.901Z,10.63
2023-05-21T12:29:42.496Z,9.87
2023-05-21T12:32:19.350Z,9.70
2023-05-21T12:34:54.695Z,10.20
2023-05-21T12:37:31.313Z,10.13
2023-05-21T12:40:04.817Z,9.87
2023-05-21T12:42:35.111Z,11.40
2023-05-21T12:45:06.879Z,10.07
2023-05-21T12:47:33.833Z,10.00
2023-05-21T12:50:02.012Z,10.70
2023-05-21T12:52:30.945Z,10.83
2023-05-21T12:54:58.559Z,9.57
2023-05-21T12:57:36.024Z,10.50
2023-05-21T13:00:06.507Z,10.00
2023-05-21T13:02:41.328Z,11.57
2023-05-21T13:05:18.689Z,10.50
2023-05-21T13:07:50.999Z,10.67
2023-05-21T13:10:18.173Z,10.53
2023-05-21T13:12:45.971Z,10.50
2023-05-21T13:15:12.938Z,10.23
2023-05-21T13:17:39.708Z,10.80
2023-05-21T13:20:14.201Z,11.00
2023-05-21T13:22:42.936Z,10.50
2023-05-21T13:25:11.492Z,11.60
2023-05-21T13:27:39.053Z,11.17
2023-05-21T13:30:07.039Z,10.93
2023-05-21T13:32:34.291Z,10.47
2023-05-21T13:35:01.069Z,10.60
2023-05-21T13:37:27.992Z,10.87
2023-05-21T13:39:54.707Z,9.83
2023-05-21T13:42:21.416Z,10.00
2023-05-21T13:44:48.605Z,10.60
2023-05-21T13:47:15.645Z,10.73
2023-05-21T13:49:42.566Z,9.37
2023-05-21T13:52:09.571Z,11.80
2023-05-21T13:54:36.839Z,11.90
2023-05-21T13:57:04.137Z,11.40
2023-05-21T13:59:33.456Z,10.13
2023-05-21T14:02:00.828Z,9.83
2023-05-21T14:04:27.600Z,10.43
2023-05-21T14:06:54.304Z,10.10
2023-05-21T14:09:21.368Z,9.27
2023-05-21T14:11:48.033Z,9.40
2023-05-21T14:14:18.898Z,9.10
2023-05-21T14:16:47.154Z,9.87
2023-05-21T14:19:14.815Z,9.90
2023-05-21T14:21:41.862Z,8.30
2023-05-21T14:24:08.604Z,8.00
2023-05-21T14:26:37.518Z,8.87
2023-05-21T14:29:04.225Z,8.37
2023-05-21T14:31:31.285Z,9.30
2023-05-21T14:33:58.065Z,7.93
2023-05-21T14:36:24.740Z,8.57
2023-05-21T14:38:51.473Z,9.53
2023-05-21T14:41:18.217Z,8.47
2023-05-21T14:43:44.889Z,8.53
2023-05-21T14:46:11.575Z,8.93
2023-05-21T14:48:38.331Z,8.70
2023-05-21T14:51:05.028Z,8.37
2023-05-21T14:53:32.308Z,8.53
2023-05-21T14:55:59.047Z,8.60
2023-05-21T14:58:25.732Z,8.43
2023-05-21T15:00:52.473Z,7.43
2023-05-21T15:03:19.224Z,9.13
2023-05-21T15:05:46.003Z,8.37
2023-05-21T15:12:21.133Z,9.10
2023-05-21T15:14:47.856Z,8.87
2023-05-21T15:17:14.664Z,8.93
2023-05-21T15:19:41.373Z,8.47
2023-05-21T15:22:08.072Z,8.00
2023-05-21T15:24:34.735Z,7.30
2023-05-21T15:27:01.497Z,8.93
2023-05-21T15:29:28.173Z,8.33
2023-05-21T15:31:55.010Z,7.93
2023-05-21T15:34:21.768Z,8.70
2023-05-21T15:36:48.471Z,8.10
2023-05-21T15:39:15.210Z,8.73
2023-05-21T15:41:42.285Z,7.60
2023-05-21T15:44:08.991Z,8.17
2023-05-21T15:46:35.899Z,8.67
2023-05-21T15:49:02.696Z,8.80
2023-05-21T15:51:29.583Z,8.80
2023-05-21T15:53:56.330Z,7.80
2023-05-21T15:56:23.048Z,8.70
2023-05-21T15:58:49.694Z,8.90
2023-05-21T16:01:16.527Z,9.83
2023-05-21T16:03:43.371Z,7.57
2023-05-21T16:06:10.456Z,9.10
2023-05-21T16:08:37.575Z,8.57
2023-05-21T16:11:04.284Z,8.90
2023-05-21T16:13:30.935Z,8.30
2023-05-21T16:15:57.607Z,8.70
2023-05-21T16:18:24.236Z,8.20
2023-05-21T16:20:50.938Z,7.30
2023-05-21T16:23:17.633Z,8.63
2023-05-21T16:25:44.347Z,7.37
2023-05-21T16:28:12.197Z,7.90
2023-05-21T16:30:38.972Z,7.73
2023-05-21T16:33:06.063Z,8.30
2023-05-21T16:35:32.974Z,7.30
2023-05-21T16:37:59.929Z,8.03
2023-05-21T16:40:26.596Z,8.47
2023-05-21T16:42:53.636Z,8.23
2023-05-21T16:45:21.460Z,8.13
2023-05-21T16:47:50.094Z,7.10
2023-05-21T16:50:17.564Z,7.80
2023-05-21T16:52:44.338Z,7.77
2023-05-21T16:55:11.048Z,7.50
2023-05-21T16:57:37.938Z,8.17
2023-05-21T17:00:05.681Z,8.33
2023-05-21T17:02:32.391Z,8.37
2023-05-21T17:04:59.212Z,7.60
2023-05-21T17:07:26.720Z,8.27
2023-05-21T17:09:53.377Z,7.50
2023-05-21T17:12:20.194Z,8.17
2023-05-21T17:14:46.938Z,8.27
2023-05-21T17:17:13.663Z,8.40
2023-05-21T17:19:40.764Z,10.03
2023-05-21T17:22:08.354Z,9.87
2023-05-21T17:24:35.079Z,9.60
2023-05-21T17:27:01.775Z,10.27
2023-05-21T17:29:28.604Z,10.73
2023-05-21T17:31:55.475Z,10.17
2023-05-21T17:34:26.166Z,10.20
2023-05-21T17:36:54.255Z,9.53
2023-05-21T17:39:21.060Z,8.83
2023-05-21T17:41:47.807Z,9.27
2023-05-21T17:44:16.871Z,10.40
2023-05-21T17:46:44.387Z,9.97
2023-05-21T17:49:11.158Z,9.60
2023-05-21T17:51:38.417Z,7.90
2023-05-21T17:54:05.704Z,8.20
2023-05-21T17:56:38.646Z,7.97
2023-05-21T17:59:06.722Z,8.90
2023-05-21T18:01:34.784Z,7.00
2023-05-21T18:04:03.586Z,8.60
2023-05-21T18:06:31.234Z,8.37
2023-05-21T18:08:58.261Z,9.13
2023-05-21T18:11:26.202Z,8.33
2023-05-21T18:13:54.018Z,7.87
2023-05-21T18:16:21.153Z,7.83
2023-05-21T18:18:47.944Z,8.87
2023-05-21T18:21:14.785Z,7.43
2023-05-21T18:23:41.464Z,8.70
2023-05-21T18:26:08.150Z,9.07
2023-05-21T18:28:35.533Z,8.00
2023-05-21T18:31:03.861Z,8.53
2023-05-21T18:33:31.308Z,6.87
2023-05-21T18:35:58.023Z,8.20
2023-05-21T18:38:25.020Z,8.20
2023-05-21T18:40:51.719Z,8.00
2023-05-21T18:43:18.493Z,9.10
2023-05-21T18:45:46.224Z,9.03
2023-05-21T18:48:13.163Z,9.63
2023-05-21T18:50:39.924Z,9.27
2023-05-21T18:53:06.570Z,8.87
2023-05-21T18:55:34.635Z,9.13
2023-05-21T18:58:01.397Z,9.03
2023-05-21T19:00:28.236Z,8.70
2023-05-21T19:02:56.085Z,9.20
2023-05-21T19:05:22.896Z,8.93
2023-05-21T19:07:49.677Z,11.03
2023-05-21T19:10:16.405Z,9.87
2023-05-21T19:12:43.693Z,10.27
2023-05-21T19:15:11.131Z,9.20
2023-05-21T19:17:39.700Z,9.37
2023-05-21T19:20:10.015Z,9.47
2023-05-21T19:22:39.818Z,9.80
2023-05-21T19:25:06.969Z,9.90
2023-05-21T19:27:33.671Z,8.87
2023-05-21T19:30:00.414Z,9.37
2023-05-21T19:32:27.166Z,10.60
2023-05-21T19:34:53.942Z,10.10
2023-05-21T19:37:20.715Z,10.27
2023-05-21T19:39:49.965Z,9.00
2023-05-21T19:42:17.696Z,10.53
2023-05-21T19:44:44.452Z,10.30
2023-05-21T19:47:11.169Z,9.90
2023-05-21T19:49:38.068Z,10.20
2023-05-21T19:52:05.345Z,11.70
2023-05-21T19:54:32.205Z,10.47
2023-05-21T19:56:59.041Z,10.67
2023-05-21T19:59:26.261Z,10.17
2023-05-21T20:01:52.986Z,9.43
2023-05-21T20:04:19.853Z,11.13
2023-05-21T20:06:46.713Z,10.90
2023-05-21T20:09:13.776Z,9.83
2023-05-21T20:11:42.218Z,10.53
2023-05-21T20:14:08.947Z,11.13
2023-05-21T20:16:36.534Z,11.13
2023-05-21T20:19:03.727Z,11.53
2023-05-21T20:21:31.832Z,11.80
2023-05-21T20:23:58.699Z,11.47
2023-05-21T20:26:26.391Z,11.20
2023-05-21T20:28:53.254Z,10.87
2023-05-21T20:31:20.412Z,11.57
2023-05-21T20:33:50.318Z,11.13
2023-05-21T20:36:17.849Z,11.23
2023-05-21T20:38:45.464Z,10.60
2023-05-21T20:41:13.002Z,11.47
2023-05-21T20:43:39.815Z,11.97
2023-05-21T20:46:06.533Z,10.60
2023-05-21T20:48:33.782Z,10.67
2023-05-21T20:51:01.410Z,11.93
2023-05-21T20:53:28.076Z,11.10
2023-05-21T20:55:54.849Z,11.20
2023-05-21T20:58:23.882Z,11.10
2023-05-21T21:00:50.807Z,11.60
2023-05-21T21:03:18.313Z,11.23
2023-05-21T21:05:45.391Z,10.83
2023-05-21T21:08:12.273Z,11.30
2023-05-21T21:10:41.227Z,11.43
2023-05-21T21:13:08.358Z,11.50
2023-05-21T21:15:35.581Z,11.10
2023-05-21T21:18:02.510Z,12.30
2023-05-21T21:20:29.326Z,11.60
2023-05-21T21:22:56.161Z,12.20
2023-05-21T21:25:22.832Z,11.07
2023-05-21T21:27:49.502Z,10.87
2023-05-21T21:30:16.263Z,10.07
2023-05-21T21:32:43.232Z,11.20
2023-05-21T21:35:10.238Z,10.90
2023-05-21T21:37:36.944Z,11.40
2023-05-21T21:40:04.002Z,11.00
2023-05-21T21:42:30.698Z,11.20
2023-05-21T21:44:57.350Z,11.33
2023-05-21T21:47:24.028Z,11.53
2023-05-21T21:49:50.920Z,12.13
2023-05-21T21:52:18.862Z,12.17
2023-05-21T21:54:45.706Z,11.80
2023-05-21T21:57:12.410Z,11.63
2023-05-21T21:59:39.486Z,12.23
2023-05-21T22:02:06.235Z,11.00
2023-05-21T22:04:32.933Z,11.27
2023-05-21T22:06:59.670Z,11.37
2023-05-21T22:09:26.362Z,10.90
2023-05-21T22:11:53.416Z,11.20
2023-05-21T22:14:20.130Z,11.93
2023-05-21T22:16:53.077Z,12.27
2023-05-21T22:19:22.106Z,11.40
2023-05-21T22:21:49.147Z,10.80
2023-05-21T22:24:30.930Z,10.63
2023-05-21T22:26:58.549Z,16.97
2023-05-21T22:29:25.530Z,11.13
2023-05-21T22:31:52.267Z,10.53
2023-05-21T22:34:18.941Z,11.90
2023-05-21T22:36:46.661Z,9.40
2023-05-21T22:39:13.433Z,9.90
2023-05-21T22:41:40.429Z,10.47
2023-05-21T22:44:07.091Z,11.37
2023-05-21T22:46:35.317Z,9.97
2023-05-21T22:49:02.494Z,10.30
2023-05-21T22:51:34.583Z,10.53
2023-05-21T22:54:01.797Z,9.67
2023-05-21T22:56:28.929Z,9.60
2023-05-21T22:58:56.276Z,8.37
2023-05-21T23:01:23.360Z,10.50
2023-05-21T23:03:51.520Z,10.20
2023-05-21T23:06:18.489Z,9.20
2023-05-21T23:08:45.278Z,9.20
2023-05-21T23:11:11.953Z,9.00
2023-05-21T23:13:38.643Z,8.80
2023-05-21T23:16:05.913Z,10.13
2023-05-21T23:18:32.818Z,9.27
2023-05-21T23:20:59.581Z,9.50
2023-05-21T23:23:26.356Z,10.40
2023-05-21T23:25:53.130Z,8.40
2023-05-21T23:28:19.833Z,10.93
2023-05-21T23:30:46.709Z,8.60
2023-05-21T23:33:13.885Z,9.10
2023-05-21T23:35:40.784Z,9.20
2023-05-21T23:38:07.476Z,9.70
2023-05-21T23:40:34.180Z,9.17
2023-05-21T23:43:01.160Z,9.60
2023-05-21T23:45:27.887Z,8.43
2023-05-21T23:47:54.560Z,8.60
2023-05-21T23:50:21.274Z,8.60
2023-05-21T23:52:48.047Z,8.60
2023-05-21T23:55:14.943Z,8.43
2023-05-21T23:57:41.730Z,8.20
